Terminal Aerodrome Forecast
Issued by NWS Duluth, MN

Home | Current Version | Previous Version | Text Only | Print | Product List | Glossary On
Versions: 1 2 3 4 5 6 7 8 9 10 11 12 13 14 15 16 17 18
000
FTUS43 KDLH 270538
TAFINL
TAF
KINL 270538Z 2706/2806 VRB03KT P6SM FEW070 BKN100
     FM271000 16003KT P6SM BKN080
     FM271400 18006KT P6SM VCSH OVC050
     FM271900 20006KT 6SM -SHRA VCTS OVC040CB
      TEMPO 2720/2723 5SM -TSRA BR SCT015 OVC025CB
     FM280300 14003KT 6SM BR SCT025 OVC035=

USA.gov is the U.S. government's official web portal to all federal, state and local government web resources and services.